Nicolás Pereyra

Recruteur - Godoy Cruz
20 Févr 2028
Dimanche
Processus

Personnalité

Adaptabilité (18) Ambition (8) Controverse (19) Loyauté (1) Pression (14) Professionnalisme (16) Sportivité (1) Tempérament (18)

Profil

Style d'entraînement Démocratique
Diplôme Continental B
Détermination 7
Gestion des joueurs 11
Motivation 5
Discipline 7
Satisfaction professionnelle
100%
Fatigue
0%
Rôle Recruteur
Salaire 57.9K p/s
Contrat 14.03.2028

Performance

Comportement Bon
Efficacité de l'entraînement
34%
Développement des joueurs
45%
Prévention des blessures
30%
Mise en place tactique
25%

Événements récents

Négociation de contrat entamée maintenant
A participé à une réunion de recrutement maintenant
A participé à une réunion de recrutement maintenant
A participé à une réunion de recrutement maintenant
Négociation de contrat entamée maintenant
Négociation de contrat entamée maintenant
Négociation de contrat entamée maintenant
Négociation de contrat entamée 7j

Suivi en cours

88
Joueur Club Statut Capacité Confiance Observé Dernière observation Dernier vote
Alexander Díaz Deportivo Riestra Actif 122 / 115 40% 1 21.12.2027 -
Mattia Bortolussi Padova Actif 131 / 127 40% 1 21.12.2027 -
Nicolás Cordero Aldosivi Actif 117 / 111 40% 3 28.11.2026 -
Yuber Quiñónes Deportivo Pereira Actif 126 / 114 40% 2 26.11.2026 -
José Martínes CSKA 1948 Actif 96 / 106 40% 2 23.11.2026 -
Patrik Mijić HNK Gorica Actif 98 / 113 40% 1 22.11.2026 -
Seedy Jatta Sturm Graz Actif 112 / 134 40% 1 21.11.2026 -
Daniel Karlsbakk Sarpsborg 08 Actif 139 / 119 40% 1 19.11.2026 Plus d'infos
Agustín Fernández NK Zavrc Actif 76 / 84 40% 3 17.11.2026 -
Yeison Moreno Hajduk Split Actif 109 / 107 40% 2 17.11.2026 -
Kévin Denkey FC Cincinnati Actif 133 / 126 40% 4 15.11.2026 Observer
Wessam Abou Ali Columbus Crew Actif 137 / 120 40% 2 13.11.2026 -
Juan Francisco Rossel Universidad Catolica Actif 82 / 98 40% 1 13.11.2026 -
Themba Ngcobo SuperSport United Actif 108 / 118 40% 1 03.11.2026 -
Bénie Traoré New York City Actif 127 / 134 40% 1 03.11.2026 -
Petar Stanić Ludogorets Actif 151 / 145 40% 1 03.11.2026 -
Hílder Arboleda Union Magdalena Actif 85 / 80 40% 1 31.10.2026 -
Tomás González Piast Actif 106 / 111 40% 5 30.10.2026 -
Archie Goodwin Charlotte Football Club Actif 100 / 105 40% 2 30.10.2026 -
Alasana Yirajang AS Trencin Actif 104 / 103 40% 2 28.10.2026 -
Rafael Navarro St. Louis CITY SC Actif 131 / 117 40% 1 26.10.2026 -
Ezekiel Kwame Alladoh Philadelphia Union Actif 105 / 115 40% 4 24.10.2026 -
Rodrigo Bogarín Barracas Central Actif 128 / 109 40% 3 24.10.2026 -
Dilan Godoy Vélez Actif 104 / 121 40% 1 24.10.2026 -
Adalberto Peñaranda Deportivo Tachira Actif 114 / 109 40% 1 21.10.2026 -
Breel Embolo Atlanta United FC Actif 144 / 127 40% 1 21.10.2026 -
David Kalokoh Ajax Actif 101 / 121 40% 1 21.10.2026 -
Jonás Luna Santa Clara Actif 108 / 106 40% 2 18.10.2026 -
Victor Adeboyejo Ismaily Actif 98 / 103 40% 1 14.10.2026 -
Sead Hakšabanović Malmo FF Actif 108 / 107 40% 1 12.10.2026 -
Facundo Mura Inter Miami CF Actif 130 / 134 40% 1 12.10.2026 -
Erison Kawasaki Frontale Actif 135 / 115 40% 1 10.10.2026 -
Tadeo Allende Inter Miami CF Actif 128 / 121 40% 1 10.10.2026 -
Tomás Chancalay Minnesota United FC Actif 122 / 134 40% 1 08.10.2026 -
Mandla Mahlangu Ajax Cape Town Actif 92 / 116 40% 1 07.10.2026 -
Federico Girotti Alianza Lima Actif 116 / 128 40% 1 05.10.2026 -
Sebastián Cocimano Nueva Chicago Actif 119 / 110 40% 1 05.10.2026 -
Griffin Yow New England Revolution Actif 116 / 130 40% 1 04.10.2026 -
Juan Rocca Gimnasia y Tiro Actif 109 / 104 40% 1 02.10.2026 -
Morgan Guilavogui Real Salt Lake Actif 121 / 136 40% 1 30.09.2026 -
Marcus Caldeira Minnesota United FC Actif 96 / 89 40% 1 29.09.2026 -
Sota Kitano Luzern Actif 124 / 129 40% 1 28.09.2026 -
Cheikh Sabaly Vancouver Whitecaps Actif 131 / 119 40% 1 27.09.2026 -
Agustín Módica Gimnasia y Esgrima Actif 122 / 129 40% 1 26.09.2026 -
Bruno Morales Cerro Actif 84 / 99 40% 1 25.09.2026 -
Eduardo Delmás Olimpia Actif 79 / 101 40% 1 25.09.2026 -
Antony Alonso Deportivo Riestra Actif 114 / 120 40% 1 22.09.2026 -
Adrián Alcaraz Pachuca Actif 107 / 107 40% 1 21.09.2026 -
Santiago Toloza O'Higgins Actif 117 / 120 40% 1 20.09.2026 -
Victor Olatunji Real Salt Lake Actif 118 / 126 40% 1 19.09.2026 -
Jonás Acevedo Instituto Actif 118 / 113 40% 1 19.09.2026 -
Tomás Alarcón Colo-Colo Actif 115 / 129 40% 1 16.09.2026 -
Juan Camilo Mosquera Atletico Bucaramanga Actif 115 / 116 40% 1 16.09.2026 -
Adalberto Carrasquilla Pumas UNAM Actif 128 / 119 40% 1 14.09.2026 -
Ignacio Schor O'Higgins Actif 118 / 124 40% 1 14.09.2026 -
Lucas Carrizo Plaza Colonia Actif 109 / 112 40% 2 13.09.2026 -
Juan Pablo Domínguez Leon Actif 133 / 118 40% 1 13.09.2026 -
Manuel Rodríguez Millonarios Actif 76 / 97 40% 1 10.09.2026 -
Youssoufa Moukoko FC Copenhagen Actif 134 / 114 40% 1 08.09.2026 -
Jhojan Julio Queretaro Actif 130 / 114 40% 2 07.09.2026 -
Mourad Tijuana Actif 112 / 120 40% 1 07.09.2026 -
Aldair Zárate Atletico Bucaramanga Actif 123 / 112 40% 1 07.09.2026 -
Yeferson Rodallega Envigado Actif 123 / 109 40% 1 07.09.2026 -
Agustín Venezia Iquique Actif 112 / 104 40% 1 04.09.2026 -
Maximiliano Silvera Nacional Actif 114 / 123 40% 1 31.08.2026 -
Duk Atlas Actif 117 / 119 40% 1 31.08.2026 -
Lucas Acosta Liverpool Montevideo Actif 120 / 107 40% 1 30.08.2026 -
Maicol Ferreira Danubio Actif 99 / 96 40% 1 30.08.2026 -
Yastin Cuevas Colo-Colo Actif 95 / 96 40% 1 29.08.2026 -
Rodrigo Hernández River Plate Actif 93 / 99 40% 2 28.08.2026 -
Juan Rodríguez Wanderers Actif 83 / 90 40% 1 28.08.2026 -
Alan Cantero Alianza Lima Actif 119 / 115 40% 1 27.08.2026 -
Alejo Cruz Juventud Actif 116 / 121 40% 2 26.08.2026 -
Enrique Almeida Cerro Largo Actif 98 / 108 40% 2 25.08.2026 -
Jáder Valencia Deportes Tolima Actif 120 / 105 40% 1 24.08.2026 -
Lucas Di Yorio Santos Laguna Actif 109 / 108 40% 1 24.08.2026 -
Róyner Benítez Aguilas Doradas Actif 105 / 111 40% 1 22.08.2026 -
Agustín Paz Progreso Actif 118 / 108 40% 1 22.08.2026 -
Federico Viñas Toluca Actif 132 / 131 40% 1 20.08.2026 -
Simón Meza Cerrito Actif 93 / 97 40% 1 18.08.2026 -
Justo Giani Universidad Catolica Actif 111 / 111 40% 1 16.08.2026 -
Sam Surridge Nashville SC Actif 133 / 137 40% 1 15.08.2026 -
Luis Ramos Alianza Lima Actif 108 / 120 40% 1 11.08.2026 -
Luciano Inverso Rentistas Actif 100 / 117 40% 1 11.08.2026 -
Diego Rossi Monterrey Actif 140 / 125 40% 1 07.08.2026 -
Manuel Ospina Cortulua Actif 126 / 120 40% 1 06.08.2026 -
Diego Valencia Universidad Catolica Actif 104 / 98 40% 1 02.08.2026 -
Ismael Díaz Leon Actif 125 / 128 40% 1 01.08.2026 -